KBKE

Baker City Municipal Airport

Baker City, Oregon, USA
METAR KBKE 170553Z AUTO 00000KT 10SM CLR M08/M11 A3022 RMK AO2 SLP266 T10831111 10006 21083 55001
Observed Flight Rules
Dec-17 @ 05:53 UTC (26 minutes ago) Visual Flight Rules
Wind Visibility Clouds
Calm 10 miles
  • Clear skies
Temperatures Readings
Current -8°C / 18°F
Dewpoint -11°C / 12°F
Humidity 79%
Altimeter 30.22" Hg
Pressure 1026.6 hPa
Elevation 1024
METAR KBKE 170553Z AUTO 00000KT 10SM CLR M08/M11 A3022 RMK AO2 SLP266 T10831111 10006 21083 55001
Observed Flight Rules
Dec-17 @ 05:53 UTC
(26 minutes ago)
VFR
Wind Visibility
Calm 10 miles
Clouds
  • Clear skies
Temperature Dewpoint
-8°C / 18°F -11°C / 12°F
Humidity Altimeter Pressure
79% 30.22" Hg 1026.6 hPa